Latest Coastal Weather Observations for Cape Nelson

IDS60701

Issued at 1:21 am CST Monday 20 April 2015 (issued every 10 minutes, with the page automatically refreshed every 10 minutes)

About coastal observations | Map of coastal stations | Coastal observations for SA | Marine services | Other Formats
Station Details ID: 090184 Name: CAPE NELSON LIGHTHOUSE Lat: -38.43 Lon: 141.54 Height: 45.4 m
Data from the previous 72 hours. | See also: Recent months at Cape Nelson
Date/Time
CST
Temp

°C
Wind Pressure Rain
since 9am
mm
Weather Cloud Vis
km
Sea
Height
m
Swell
Dir
 
Speed
knots
Gust
knots
hPa Trend Height
m
Period
s
Dir
20/01:00am 11.7 S 10 14 1037.3 - 0.0 - - - - - - -
20/12:30am 11.7 S 10 15 1037.4 - 0.0 - - - - - - -
20/12:00am 11.8 S 11 16 1037.4 - 0.0 - - - - - - -
 
Date/Time
CST
Temp

°C
Wind Pressure Rain
since 9am
mm
Weather Cloud Vis
km
Sea
Height
m
Swell
Dir
 
Speed
knots
Gust
knots
hPa Trend Height
m
Period
s
Dir
19/11:30pm 11.6 S 12 17 1037.5 - 0.0 - - - - - - -
19/11:00pm 11.7 S 12 17 1037.7 - 0.0 - - - - - - -
19/10:30pm 11.7 SSE 13 17 1037.6 - 0.0 - - - - - - -
19/10:00pm 11.7 S 14 19 1037.6 - 0.0 - - - - - - -
19/09:30pm 11.8 S 14 18 1037.5 - 0.0 - - - - - - -
19/09:00pm 11.7 S 13 18 1037.4 - 0.0 - - - - - - -
19/08:30pm 11.8 S 14 19 1037.2 - 0.0 - - - - - - -
19/08:00pm 11.8 SSE 12 17 1036.8 - 0.0 - - - - - - -
19/07:30pm 11.9 SSE 13 17 1036.4 - 0.0 - - - - - - -
19/07:00pm 11.7 S 15 18 1036.0 - 0.0 - - - - - - -
19/06:30pm 11.6 S 14 22 1035.6 - 0.0 - - - - - - -
19/06:00pm 11.5 S 14 19 1035.2 - 0.0 - - - - - - -
19/05:30pm 11.5 S 13 19 1034.9 - 0.0 - - - - - - -
19/05:00pm 11.7 S 14 20 1034.7 - 0.0 - - - - - - -
19/04:30pm 12.0 S 16 23 1034.4 - 0.0 - - - - - - -
19/04:00pm 12.4 S 13 20 1034.2 - 0.0 - - - - - - -
19/03:30pm 12.7 S 15 21 1033.9 - 0.0 - - - - - - -
19/03:00pm 12.9 S 15 20 1033.7 - 0.0 - - - - - - -
19/02:30pm 13.2 S 14 19 1033.4 - 0.0 - - - - - - -
19/02:00pm 13.2 S 16 23 1033.3 - 0.0 - - - - - - -
19/01:30pm 13.1 S 17 23 1033.1 - 0.0 - - - - - - -
19/01:00pm 13.2 S 16 24 1032.7 - 0.0 - - - - - - -
19/12:30pm 13.1 S 17 25 1032.6 - 0.0 - - - - - - -
19/12:00pm 13.2 S 17 23 1032.6 - 0.0 - - - - - - -
19/11:30am 13.0 S 18 26 1032.6 - 0.0 - - - - - - -
19/11:17am 12.8 S 17 27 1032.4 - 0.0 - - - - - - -
19/11:00am 12.8 S 17 26 1032.2 - 0.0 - - - - - - -
19/10:30am 12.5 S 21 27 1032.0 - 0.0 - - - - - - -
19/10:00am 12.0 S 17 25 1031.6 - 0.0 - - - - - - -
19/09:30am 12.5 S 16 23 1031.0 - 0.0 - - - - - - -
19/09:14am 12.1 S 16 26 1030.7 - 0.0 - - - - - - -
19/09:00am 11.9 S 17 24 1030.5 - 0.0 - - - - - - -
19/08:30am 11.7 S 21 29 1030.1 - 5.0 - - - - - - -
19/08:12am 11.4 S 20 32 1029.7 - 5.0 - - - - - - -
19/08:00am 11.9 S 18 26 1029.5 - 5.0 - - - - - - -
19/07:30am 11.4 S 20 31 1028.8 - 5.0 - - - - - - -
19/07:06am 11.7 S 18 28 1028.1 - 5.0 - - - - - - -
19/07:00am 11.2 S 19 27 1028.0 - 5.0 - - - - - - -
19/06:59am 11.4 S 19 29 1028.0 - 5.0 - - - - - - -
19/06:30am 11.6 S 21 29 1027.2 - 5.0 - - - - - - -
19/06:00am 11.7 S 23 30 1026.4 - 5.0 - - - - - - -
19/05:30am 11.7 S 19 27 1025.8 - 5.0 Recent precip. - - - - - -
19/05:09am 11.5 S 19 29 1025.3 - 4.8 - - - - - - -
19/05:00am 11.2 S 16 21 1025.2 - 4.8 - - - - - - -
19/04:32am 10.8 S 26 36 1024.9 - 4.8 - - - - - - -
19/04:30am 10.8 S 27 36 1024.9 - 4.8 - - - - - - -
19/04:10am 12.1 S 23 39 1024.5 - 4.8 - - - - - - -
19/04:00am 11.7 S 21 30 1024.2 - 4.8 - - - - - - -
19/03:53am 11.7 S 17 27 1024.1 - 4.8 - - - - - - -
19/03:30am 11.6 S 21 28 1023.8 - 4.8 - - - - - - -
19/03:00am 11.4 S 22 32 1023.4 - 4.8 - - - - - - -
19/02:57am 11.2 S 22 32 1023.4 - 4.8 - - - - - - -
19/02:30am 11.6 S 23 29 1023.1 - 4.8 - - - - - - -
19/02:00am 11.6 S 22 31 1022.7 - 4.8 - - - - - - -
19/01:30am 12.0 S 19 29 1022.3 - 4.8 - - - - - - -
19/01:13am 11.8 S 17 27 1022.3 - 4.8 - - - - - - -
19/01:00am 11.9 S 23 29 1022.1 - 4.8 - - - - - - -
19/12:33am 11.5 S 19 30 1021.8 - 4.8 - - - - - - -
19/12:30am 12.1 S 19 28 1021.7 - 4.8 - - - - - - -
19/12:07am 11.8 S 18 28 1021.4 - 4.8 - - - - - - -
19/12:00am 11.7 S 20 28 1021.3 - 4.8 - - - - - - -
 
Date/Time
CST
Temp

°C
Wind Pressure Rain
since 9am
mm
Weather Cloud Vis
km
Sea
Height
m
Swell
Dir
 
Speed
knots
Gust
knots
hPa Trend Height
m
Period
s
Dir
18/11:33pm 12.3 S 16 30 1021.0 - 4.8 - - - - - - -
18/11:30pm 12.4 S 13 24 1020.8 - 4.8 - - - - - - -
18/11:00pm 12.2 S 15 22 1020.6 - 4.8 - - - - - - -
18/10:30pm 11.8 S 18 27 1020.4 - 4.8 - - - - - - -
18/10:18pm 12.2 SSE 14 29 1020.3 - 4.8 - - - - - - -
18/10:00pm 12.5 SSE 13 20 1019.9 - 4.8 - - - - - - -
18/09:49pm 12.5 SSE 13 25 1019.7 - 4.8 - - - - - - -
18/09:30pm 12.4 SSE 14 23 1019.4 - 4.8 - - - - - - -
18/09:14pm 12.8 SE 13 27 1018.8 - 4.8 - - - - - - -
18/09:00pm 12.7 S 13 23 1018.6 - 4.8 - - - - - - -
18/08:30pm 12.7 ESE 12 21 1017.8 - 4.8 - - - - - - -
18/08:00pm 12.5 NE 10 17 1017.6 - 4.8 - - - - - - -
18/07:30pm 12.9 ESE 11 20 1016.9 - 4.8 - - - - - - -
18/07:00pm 13.1 SSE 13 27 1016.4 - 4.8 - - - - - - -
18/06:53pm 12.9 ESE 10 27 1016.3 - 4.8 - - - - - - -
18/06:30pm 12.7 E 13 21 1015.8 - 4.8 - - - - - - -
18/06:20pm 13.1 ENE 13 27 1015.5 - 4.8 - - - - - - -
18/06:00pm 13.2 NNE 12 20 1015.1 - 4.8 - - - - - - -
18/05:30pm 13.5 N 11 19 1014.4 - 4.8 - - - - - - -
18/05:00pm 13.6 N 11 21 1013.6 - 4.8 - - - - - - -
18/04:30pm 13.4 NNE 11 19 1013.4 - 4.8 - - - - - - -
18/04:00pm 13.0 WNW 16 24 1013.1 - 4.8 - - - - - - -
18/03:30pm 13.0 W 15 21 1013.1 - 4.8 - - - - - - -
18/03:00pm 12.1 W 16 21 1013.1 - 4.6 - - - - - - -
18/02:30pm 12.4 NW 12 18 1012.5 - 4.2 Recent precip. - - - - - -
18/02:00pm 12.3 SE 9 17 1011.7 - 3.6 - - - - - - -
18/01:30pm 12.3 NNE 12 21 1011.6 - 3.2 - - - - - - -
18/01:00pm 12.8 SSE 14 26 1011.2 - 2.4 - - - - - - -
18/12:30pm 14.2 WNW 20 32 1010.1 - 2.4 - - - - - - -
18/12:27pm 14.2 WNW 20 32 1010.3 - 2.4 - - - - - - -
18/12:20pm 16.9 NW 16 26 1010.4 - 0.0 - - - - - - -
18/12:00pm 17.4 NW 18 26 1010.7 - 0.0 - - - - - - -
18/11:30am 17.2 NW 23 33 1010.9 - 0.0 - - - - - - -
18/11:01am 17.7 NW 21 31 1010.9 - 0.0 - - - - - - -
18/11:00am 17.7 NW 21 30 1010.9 - 0.0 - - - - - - -
18/10:30am 16.0 NW 20 30 1011.4 - 0.0 - - - - - - -
18/10:29am 15.9 NW 20 30 1011.3 - 0.0 - - - - - - -
18/10:00am 16.6 NW 20 28 1011.5 - 0.0 - - - - - - -
18/09:42am 16.4 NW 18 28 1011.7 - 0.0 - - - - - - -
18/09:30am 16.7 NW 18 26 1011.7 - 0.0 - - - - - - -
18/09:00am 15.8 NW 19 31 1011.7 - 0.0 - - - - - - -
18/08:45am 15.2 NW 18 28 1011.8 - 0.0 - - - - - - -
18/08:30am 15.0 NW 19 27 1012.0 - 0.0 - - - - - - -
18/08:22am 14.8 NW 15 25 1012.0 - 0.0 - - - - - - -
18/08:00am 13.8 NNW 14 21 1012.1 - 0.0 - - - - - - -
18/07:30am 12.4 NNW 13 19 1012.3 - 0.0 - - - - - - -
18/07:00am 11.8 NNW 14 20 1012.3 - 0.0 - - - - - - -
18/06:30am 11.2 NNW 13 19 1012.1 - 0.0 - - - - - - -
18/06:00am 11.2 NNW 12 17 1012.1 - 0.0 - - - - - - -
18/05:30am 11.3 NNW 12 17 1011.9 - 0.0 - - - - - - -
18/05:00am 11.8 NW 13 18 1011.8 - 0.0 - - - - - - -
18/04:30am 12.0 NW 16 21 1011.6 - 0.0 - - - - - - -
18/04:00am 12.2 NW 15 20 1011.7 - 0.0 - - - - - - -
18/03:30am 12.4 NW 14 19 1011.8 - 0.0 - - - - - - -
18/03:00am 12.5 NW 12 17 1011.8 - 0.0 - - - - - - -
18/02:30am 12.9 NW 11 17 1012.1 - 0.0 - - - - - - -
18/02:00am 12.9 NW 10 15 1012.4 - 0.0 - - - - - - -
18/01:30am 13.1 NNW 8 10 1012.8 - 0.0 - - - - - - -
18/01:00am 13.3 NW 9 11 1013.1 - 0.0 - - - - - - -
18/12:30am 13.7 NW 9 13 1013.4 - 0.0 - - - - - - -
18/12:00am 13.7 WNW 11 15 1013.6 - 0.0 - - - - - - -
 
Date/Time
CST
Temp

°C
Wind Pressure Rain
since 9am
mm
Weather Cloud Vis
km
Sea
Height
m
Swell
Dir
 
Speed
knots
Gust
knots
hPa Trend Height
m
Period
s
Dir
17/11:30pm 13.6 WNW 8 12 1014.1 - 0.0 - - - - - - -
17/11:00pm 13.3 WNW 7 9 1014.7 - 0.0 - - - - - - -
17/10:30pm 13.3 NW 5 7 1015.1 - 0.0 - - - - - - -
17/10:00pm 13.4 WNW 7 9 1015.3 - 0.0 - - - - - - -
17/09:30pm 13.5 WNW 7 9 1015.3 - 0.0 - - - - - - -
17/09:00pm 13.7 W 6 8 1015.5 - 0.0 - - - - - - -
17/08:30pm 13.7 W 5 7 1015.6 - 0.0 - - - - - - -
17/08:00pm 13.6 W 6 8 1015.7 - 0.0 - - - - - - -
17/07:30pm 13.6 W 6 9 1015.9 - 0.0 - - - - - - -
17/07:00pm 13.7 W 5 8 1016.1 - 0.0 - - - - - - -
17/06:30pm 13.6 NW 5 8 1015.8 - 0.0 - - - - - - -
17/06:00pm 13.7 W 4 7 1016.0 - 0.0 - - - - - - -
17/05:30pm 13.7 W 1 3 1015.8 - 0.0 - - - - - - -
17/05:00pm 13.8 SSW 1 4 1016.2 - 0.0 - - - - - - -
17/04:30pm 14.0 S 4 5 1016.2 - 0.0 - - - - - - -
17/04:00pm 14.2 SW 3 5 1016.2 - 0.0 - - - - - - -
17/03:30pm 14.8 NE 2 5 1016.7 - 0.0 - - - - - - -
17/03:00pm 14.9 WSW 3 6 1016.7 - 0.0 - - - - - - -
17/02:30pm 15.1 W 6 7 1017.4 - 0.0 - - - - - - -
17/02:00pm 15.2 N 3 6 1017.6 - 0.0 - - - - - - -
17/01:30pm 15.4 N 3 6 1018.0 - 0.0 - - - - - - -
17/01:00pm 14.4 ENE 7 9 1018.2 - 0.0 - - - - - - -
17/12:30pm 14.3 ENE 9 13 1018.7 - 0.0 - - - - - - -
17/12:00pm 14.7 NE 7 11 1020.5 - 0.0 - - - - - - -
17/11:30am 15.3 ENE 8 11 1020.7 - 0.0 - - - - - - -
17/11:00am 14.7 E 9 12 1021.1 - 0.0 - - - - - - -
17/10:30am 15.1 ENE 6 9 1021.8 - 0.0 - - - - - - -
17/10:00am 14.3 NE 7 10 1022.0 - 0.0 - - - - - - -
17/09:30am 13.9 NNE 5 9 1022.8 - 0.0 - - - - - - -
17/09:00am 12.6 NNE 6 8 1022.7 - 0.0 - - - - - - -
17/08:30am 11.6 NNE 6 8 1023.0 - 0.0 - - - - - - -
17/08:00am 10.4 N 5 7 1023.5 - 0.0 - - - - - - -
17/07:30am 8.9 N 6 8 1023.7 - 0.0 - - - - - - -
17/07:00am 8.0 N 7 8 1023.6 - 0.0 - - - - - - -
17/06:30am 7.7 N 6 7 1023.4 - 0.0 - - - - - - -
17/06:00am 7.8 N 6 7 1023.4 - 0.0 - - - - - - -
17/05:30am 8.1 N 6 7 1023.4 - 0.0 - - - - - - -
17/05:00am 8.5 N 6 7 1023.3 - 0.0 - - - - - - -
17/04:30am 8.6 N 5 6 1023.1 - 0.0 - - - - - - -
17/04:00am 8.7 N 5 6 1023.3 - 0.0 - - - - - - -
17/03:30am 8.9 N 5 6 1023.4 - 0.0 - - - - - - -
17/03:00am 9.1 N 5 6 1023.5 - 0.0 - - - - - - -
17/02:30am 9.2 N 5 6 1023.8 - 0.0 - - - - - - -
17/02:00am 9.4 N 5 6 1024.0 - 0.0 - - - - - - -
17/01:30am 9.1 N 5 5 1024.3 - 0.0 - - - - - - -
17/01:00am 8.7 N 5 6 1024.4 - 0.0 - - - - - - -

Other Formats:

Comma delimited format used in spreadsheet applications
http://www.bom.gov.au/fwo/IDS60701/IDS60701.94826.axf

JavaScript Object Notation format (JSON) in row-major order
http://www.bom.gov.au/fwo/IDS60701/IDS60701.94826.json